Time;durP1;ratioP1;P1;durP2;ratioP2;P2;SDS_P1;SDS_P2;PMS_P1;PMS_P2;Temp;Humidity;BMP_temperature;BMP_pressure;BME280_temperature;BME280_humidity;BME280_pressure;Samples;Min_cycle;Max_cycle;Signal;HPM_P1;HPM_P2
2021/06/08 00:02:25;;;;;;;47.80;39.93;;;17.30;99.90;;;;;;5072082;28;20447;-65
2021/06/08 00:04:51;;;;;;;49.93;38.67;;;17.30;99.90;;;;;;5070692;28;20480;-65
2021/06/08 00:07:18;;;;;;;49.50;39.27;;;17.20;99.90;;;;;;5071649;28;20450;-66
2021/06/08 00:09:44;;;;;;;46.87;38.33;;;17.20;99.90;;;;;;5071475;28;20467;-68
2021/06/08 00:12:11;;;;;;;42.97;37.17;;;17.30;99.90;;;;;;5071653;28;20479;-67
2021/06/08 00:14:37;;;;;;;45.87;38.27;;;17.30;99.90;;;;;;5071820;28;20529;-66
2021/06/08 00:17:04;;;;;;;45.77;35.87;;;17.20;99.90;;;;;;5071723;28;20961;-66
2021/06/08 00:19:32;;;;;;;51.37;40.03;;;17.20;99.90;;;;;;5071107;28;20531;-69
2021/06/08 00:21:58;;;;;;;47.50;38.80;;;17.30;99.90;;;;;;5071264;28;20443;-65
2021/06/08 00:24:25;;;;;;;49.67;39.60;;;17.20;99.90;;;;;;5071636;28;20534;-68
2021/06/08 00:26:51;;;;;;;43.50;37.10;;;17.30;99.90;;;;;;5071326;28;20462;-66
2021/06/08 00:29:18;;;;;;;47.97;39.30;;;17.30;99.90;;;;;;5071420;28;20523;-66
2021/06/08 00:31:44;;;;;;;43.87;38.83;;;17.30;99.90;;;;;;5071565;28;20601;-66
2021/06/08 00:34:10;;;;;;;44.80;39.50;;;17.30;99.90;;;;;;5071253;28;20455;-66
2021/06/08 00:36:38;;;;;;;44.23;35.90;;;17.20;99.90;;;;;;5070946;28;20529;-68
2021/06/08 00:39:05;;;;;;;47.43;39.63;;;17.20;99.90;;;;;;5071278;28;20463;-65
2021/06/08 00:41:36;;;;;;;48.23;40.73;;;17.20;99.90;;;;;;5070900;28;20478;-68
2021/06/08 00:44:06;;;;;;;46.20;39.10;;;17.20;99.90;;;;;;5071128;28;20542;-66
2021/06/08 00:46:33;;;;;;;43.10;37.50;;;17.20;99.90;;;;;;5071174;28;20443;-67
2021/06/08 00:49:00;;;;;;;45.33;37.37;;;17.20;99.90;;;;;;5070661;28;20546;-68
2021/06/08 00:51:26;;;;;;;45.40;37.43;;;17.30;99.90;;;;;;5070640;28;20454;-66
2021/06/08 00:53:54;;;;;;;42.70;36.70;;;17.30;99.90;;;;;;5070668;28;20478;-66
2021/06/08 00:56:20;;;;;;;43.33;36.23;;;17.30;99.90;;;;;;5071126;28;20875;-68
2021/06/08 00:58:47;;;;;;;44.33;35.53;;;17.30;99.90;;;;;;5069888;28;20528;-67
2021/06/08 01:01:13;;;;;;;45.70;38.57;;;17.30;99.90;;;;;;5070535;28;20511;-66
2021/06/08 01:03:40;;;;;;;46.17;38.67;;;17.20;99.90;;;;;;5070358;28;20443;-67
2021/06/08 01:06:06;;;;;;;46.30;37.70;;;17.10;99.90;;;;;;5070558;28;20474;-65
2021/06/08 01:08:33;;;;;;;43.83;36.60;;;17.10;99.90;;;;;;5070560;28;20550;-69
2021/06/08 01:11:01;;;;;;;49.53;40.50;;;17.00;99.90;;;;;;5070395;28;20443;-67
2021/06/08 01:13:29;;;;;;;52.27;41.43;;;17.00;99.90;;;;;;5070531;28;20541;-68
2021/06/08 01:15:55;;;;;;;50.27;41.03;;;16.90;99.90;;;;;;5070696;28;20512;-69
2021/06/08 01:18:22;;;;;;;50.30;41.47;;;16.90;99.90;;;;;;5070409;28;20528;-66
2021/06/08 01:20:51;;;;;;;50.40;41.20;;;16.90;99.90;;;;;;5069820;28;20475;-66
2021/06/08 01:23:18;;;;;;;53.00;41.30;;;16.90;99.90;;;;;;5070403;28;20985;-66
2021/06/08 01:25:45;;;;;;;50.47;40.90;;;16.80;99.90;;;;;;5070320;28;20534;-65
2021/06/08 01:28:11;;;;;;;54.20;41.03;;;16.80;99.90;;;;;;5070217;28;21036;-66
2021/06/08 01:30:39;;;;;;;49.27;39.20;;;16.80;99.90;;;;;;5069789;28;20450;-65
2021/06/08 01:33:06;;;;;;;50.23;40.80;;;16.80;99.90;;;;;;5070224;28;20457;-66
2021/06/08 01:35:32;;;;;;;49.30;38.97;;;16.80;99.90;;;;;;5070178;28;20447;-67
2021/06/08 01:37:59;;;;;;;48.60;40.63;;;16.80;99.90;;;;;;5070187;28;20542;-68
2021/06/08 01:40:27;;;;;;;53.97;39.33;;;16.80;99.90;;;;;;5069869;28;20483;-68
2021/06/08 01:42:54;;;;;;;50.23;39.57;;;16.70;99.90;;;;;;5070222;28;20550;-65
2021/06/08 01:45:20;;;;;;;53.00;42.70;;;16.60;99.90;;;;;;5070317;28;21084;-65
2021/06/08 01:47:46;;;;;;;50.20;39.93;;;16.70;99.90;;;;;;5069942;28;20439;-68
2021/06/08 01:50:13;;;;;;;51.27;41.50;;;16.70;99.90;;;;;;5070065;28;20463;-68
2021/06/08 01:52:47;;;;;;;56.13;40.87;;;16.70;99.90;;;;;;5069983;28;20459;-67
2021/06/08 01:55:19;;;;;;;54.00;41.60;;;16.70;99.90;;;;;;5070336;28;20446;-66
2021/06/08 01:57:50;;;;;;;55.70;43.07;;;16.70;99.90;;;;;;5070253;28;20542;-66
2021/06/08 02:00:20;;;;;;;54.80;42.13;;;16.60;99.90;;;;;;5069793;28;20530;-65
2021/06/08 02:02:57;;;;;;;59.23;43.50;;;16.60;99.90;;;;;;5070238;28;20451;-66
2021/06/08 02:05:36;;;;;;;54.97;43.90;;;16.60;99.90;;;;;;5070542;28;20516;-67
2021/06/08 02:08:17;;;;;;;53.50;41.97;;;16.50;99.90;;;;;;5070050;28;20503;-65
2021/06/08 02:10:52;;;;;;;58.37;43.90;;;16.50;99.90;;;;;;5072409;28;20435;-68
2021/06/08 02:13:30;;;;;;;56.87;42.47;;;16.50;99.90;;;;;;5074172;28;20439;-66
2021/06/08 02:16:01;;;;;;;60.10;45.07;;;16.50;99.90;;;;;;5074330;28;20450;-67
2021/06/08 02:18:29;;;;;;;54.37;42.63;;;16.40;99.90;;;;;;5073805;28;20462;-70
2021/06/08 02:20:59;;;;;;;57.07;40.50;;;16.40;99.90;;;;;;5073542;28;20447;-69
2021/06/08 02:23:27;;;;;;;57.97;44.47;;;16.40;99.90;;;;;;5073823;28;20474;-69
2021/06/08 02:25:55;;;;;;;58.97;45.70;;;16.50;99.90;;;;;;5073665;28;20525;-66
2021/06/08 02:28:26;;;;;;;56.10;43.40;;;16.60;99.90;;;;;;5073831;28;20495;-66
2021/06/08 02:30:55;;;;;;;53.90;41.07;;;16.60;99.90;;;;;;5073183;28;20474;-66
2021/06/08 02:33:23;;;;;;;56.50;43.70;;;16.60;99.90;;;;;;5073797;28;20449;-65
2021/06/08 02:35:50;;;;;;;58.10;41.43;;;16.60;99.90;;;;;;5073271;28;20942;-65
2021/06/08 02:38:18;;;;;;;51.97;40.43;;;16.60;99.90;;;;;;5073552;28;20472;-67
2021/06/08 02:40:45;;;;;;;49.87;41.27;;;16.60;99.90;;;;;;5073176;28;20819;-67
2021/06/08 02:43:13;;;;;;;58.03;42.07;;;16.60;99.90;;;;;;5073727;28;20443;-66
2021/06/08 02:45:42;;;;;;;60.40;44.60;;;16.70;99.90;;;;;;5073195;28;20549;-68
2021/06/08 02:48:09;;;;;;;56.60;43.63;;;16.70;99.90;;;;;;5073082;28;20450;-66
2021/06/08 02:50:36;;;;;;;61.93;45.57;;;16.70;99.90;;;;;;5073254;28;20471;-67
2021/06/08 02:53:03;;;;;;;50.03;40.20;;;16.70;99.90;;;;;;5073481;28;20477;-67
2021/06/08 02:55:31;;;;;;;50.10;40.90;;;16.70;99.90;;;;;;5073333;28;21019;-68
2021/06/08 02:57:59;;;;;;;48.23;41.13;;;16.70;99.90;;;;;;5073110;28;20470;-66
2021/06/08 03:00:26;;;;;;;48.23;40.20;;;16.80;99.90;;;;;;5072607;28;21215;-66
2021/06/08 03:02:58;;;;;;;50.00;41.53;;;16.80;99.90;;;;;;5072670;28;20538;-66
2021/06/08 03:05:28;;;;;;;50.30;40.27;;;16.80;99.90;;;;;;5072979;28;20443;-66
2021/06/08 03:07:58;;;;;;;49.97;41.13;;;16.80;99.90;;;;;;5072904;28;20447;-68
2021/06/08 03:10:27;;;;;;;45.03;38.00;;;16.80;99.90;;;;;;5072703;28;20615;-67
2021/06/08 03:12:55;;;;;;;49.20;40.60;;;16.80;99.90;;;;;;5072763;28;20447;-66
2021/06/08 03:15:26;;;;;;;49.90;40.70;;;16.80;99.90;;;;;;5072694;28;20525;-66
2021/06/08 03:17:54;;;;;;;47.60;37.37;;;16.70;99.90;;;;;;5073041;28;20530;-66
2021/06/08 03:20:27;;;;;;;47.60;38.87;;;16.70;99.90;;;;;;5072147;28;20985;-68
2021/06/08 03:22:59;;;;;;;50.50;38.60;;;16.80;99.90;;;;;;5072615;28;20446;-68
2021/06/08 03:25:27;;;;;;;52.30;42.17;;;16.70;99.90;;;;;;5072864;28;20448;-69
2021/06/08 03:27:56;;;;;;;51.60;39.40;;;16.70;99.90;;;;;;5072500;28;20443;-66
2021/06/08 03:30:24;;;;;;;50.27;41.73;;;16.60;99.90;;;;;;5072338;28;20482;-66
2021/06/08 03:32:52;;;;;;;50.33;40.40;;;16.60;99.90;;;;;;5072450;28;20827;-67
2021/06/08 03:35:21;;;;;;;51.80;41.03;;;16.60;99.90;;;;;;5072310;28;20532;-65
2021/06/08 03:37:49;;;;;;;52.73;43.37;;;16.60;99.90;;;;;;5072478;28;20534;-68
2021/06/08 03:40:16;;;;;;;49.00;41.33;;;16.50;99.90;;;;;;5071867;28;20467;-65
2021/06/08 03:42:43;;;;;;;53.10;42.97;;;16.50;99.90;;;;;;5072607;28;20813;-66
2021/06/08 03:45:12;;;;;;;53.20;42.23;;;16.50;99.90;;;;;;5072287;28;20439;-68
2021/06/08 03:47:39;;;;;;;52.47;42.50;;;16.50;99.90;;;;;;5072337;28;20447;-67
2021/06/08 03:50:06;;;;;;;54.70;41.40;;;16.50;99.90;;;;;;5071816;28;20912;-67
2021/06/08 03:52:34;;;;;;;50.60;42.17;;;16.50;99.90;;;;;;5072201;28;20458;-66
2021/06/08 03:55:02;;;;;;;54.77;42.07;;;16.50;99.90;;;;;;5072079;28;20857;-67
2021/06/08 03:57:32;;;;;;;59.17;43.63;;;16.50;99.90;;;;;;5072425;28;20443;-67
2021/06/08 04:00:00;;;;;;;57.83;45.80;;;16.40;99.90;;;;;;5072026;28;20942;-70
2021/06/08 04:02:27;;;;;;;55.60;42.53;;;16.40;99.90;;;;;;5071828;28;20455;-65
2021/06/08 04:04:53;;;;;;;58.93;45.10;;;16.40;99.90;;;;;;5072014;28;20443;-66
2021/06/08 04:07:20;;;;;;;58.67;45.20;;;16.40;99.90;;;;;;5071614;28;20439;-65
2021/06/08 04:09:49;;;;;;;55.30;43.70;;;16.40;99.90;;;;;;5071574;28;20546;-65
2021/06/08 04:12:20;;;;;;;53.23;38.60;;;16.40;99.90;;;;;;5071640;28;20467;-67
2021/06/08 04:14:47;;;;;;;56.80;45.20;;;16.50;99.90;;;;;;5071880;28;20439;-65
2021/06/08 04:17:14;;;;;;;49.67;38.20;;;16.40;99.90;;;;;;5071405;28;20546;-69
2021/06/08 04:19:42;;;;;;;55.60;43.10;;;16.50;99.90;;;;;;5071122;28;20565;-68
2021/06/08 04:22:09;;;;;;;51.87;40.80;;;16.60;99.90;;;;;;5071113;28;20522;-66
2021/06/08 04:24:35;;;;;;;49.40;39.30;;;16.60;99.90;;;;;;5071720;28;20529;-68
2021/06/08 04:27:04;;;;;;;50.77;41.53;;;16.60;99.90;;;;;;5071045;28;20989;-67
2021/06/08 04:29:30;;;;;;;50.60;39.00;;;16.70;99.90;;;;;;5071370;28;20558;-67
2021/06/08 04:31:57;;;;;;;49.10;41.90;;;16.80;99.90;;;;;;5070501;28;20565;-66
2021/06/08 04:34:23;;;;;;;46.57;39.20;;;16.90;99.90;;;;;;5070957;28;20530;-69
2021/06/08 04:36:50;;;;;;;44.37;39.00;;;17.00;99.90;;;;;;5071449;28;20451;-66
2021/06/08 04:39:17;;;;;;;43.87;36.70;;;17.00;99.90;;;;;;5070699;28;20700;-67
2021/06/08 04:41:45;;;;;;;44.30;36.70;;;17.00;99.90;;;;;;5070948;28;20435;-66
2021/06/08 04:44:17;;;;;;;40.13;34.73;;;17.20;99.90;;;;;;5070734;28;20959;-66
2021/06/08 04:46:44;;;;;;;42.40;37.80;;;17.30;99.90;;;;;;5071045;28;20526;-67
2021/06/08 04:49:15;;;;;;;40.60;36.20;;;17.30;99.90;;;;;;5070416;28;20875;-68
2021/06/08 04:51:41;;;;;;;38.73;33.70;;;17.50;99.90;;;;;;5070734;28;20482;-68
2021/06/08 04:54:08;;;;;;;38.37;34.20;;;17.60;99.90;;;;;;5070551;28;20441;-66
2021/06/08 04:56:34;;;;;;;37.37;33.50;;;17.70;99.90;;;;;;5070510;28;20443;-65
2021/06/08 04:59:01;;;;;;;38.13;34.03;;;17.70;99.90;;;;;;5070079;28;20479;-68
2021/06/08 05:01:32;;;;;;;34.53;31.03;;;17.80;99.90;;;;;;5070601;28;20526;-66
2021/06/08 05:04:05;;;;;;;34.90;31.30;;;17.90;99.90;;;;;;5070833;28;20533;-66
2021/06/08 05:06:36;;;;;;;33.87;30.23;;;18.00;99.90;;;;;;5070800;28;20886;-66
2021/06/08 05:09:06;;;;;;;34.37;30.90;;;17.90;99.90;;;;;;5070502;28;20558;-67
2021/06/08 05:11:36;;;;;;;33.63;30.13;;;17.90;99.90;;;;;;5070133;28;20521;-68
2021/06/08 05:14:06;;;;;;;33.10;30.00;;;17.90;99.90;;;;;;5070551;28;20435;-66
2021/06/08 05:16:39;;;;;;;31.57;28.57;;;17.90;99.90;;;;;;5070099;28;21078;-65
2021/06/08 05:19:06;;;;;;;33.77;30.27;;;17.90;99.90;;;;;;5070107;28;20478;-68
2021/06/08 05:21:33;;;;;;;32.10;28.90;;;17.90;99.90;;;;;;5083580;28;20446;-68
2021/06/08 05:24:00;;;;;;;33.03;29.73;;;17.90;99.90;;;;;;5089399;28;20468;-65
2021/06/08 05:26:27;;;;;;;30.37;27.33;;;17.90;99.90;;;;;;5088668;28;20454;-68
2021/06/08 05:28:53;;;;;;;32.10;29.10;;;17.90;99.90;;;;;;5084916;28;20893;-65
2021/06/08 05:31:20;;;;;;;34.13;30.73;;;17.90;99.90;;;;;;5081774;28;20482;-64
2021/06/08 05:33:48;;;;;;;33.23;29.83;;;17.90;99.90;;;;;;5087546;28;20476;-69
2021/06/08 05:36:15;;;;;;;30.83;27.93;;;17.80;99.90;;;;;;5063637;28;20932;-69
2021/06/08 05:38:43;;;;;;;29.63;26.47;;;17.90;99.90;;;;;;5066184;28;20471;-65
2021/06/08 05:41:11;;;;;;;33.90;30.47;;;17.80;99.90;;;;;;5071045;28;20449;-66
2021/06/08 05:43:38;;;;;;;32.57;29.33;;;17.90;99.90;;;;;;5088128;28;21017;-64
2021/06/08 05:46:05;;;;;;;36.77;29.80;;;17.90;99.90;;;;;;5087663;28;20448;-65
2021/06/08 05:48:32;;;;;;;30.40;27.50;;;17.90;99.90;;;;;;5088159;28;20494;-65
2021/06/08 05:51:02;;;;;;;30.87;27.67;;;17.90;99.90;;;;;;5087157;28;20510;-67
2021/06/08 05:53:28;;;;;;;32.40;28.93;;;17.90;99.90;;;;;;5088233;28;20529;-67
2021/06/08 05:55:57;;;;;;;34.60;31.30;;;17.80;99.90;;;;;;5087906;28;20556;-67
2021/06/08 05:58:24;;;;;;;30.63;27.53;;;17.70;99.90;;;;;;5087990;28;20493;-64
2021/06/08 06:00:52;;;;;;;33.90;30.40;;;17.70;99.90;;;;;;5087755;28;20439;-66
2021/06/08 06:03:19;;;;;;;31.60;28.50;;;17.70;99.90;;;;;;5087620;28;20612;-65
2021/06/08 06:05:47;;;;;;;33.30;29.70;;;17.80;99.90;;;;;;5087587;28;20557;-65
2021/06/08 06:08:15;;;;;;;33.10;29.80;;;17.90;99.90;;;;;;5087993;28;21020;-67
2021/06/08 06:10:42;;;;;;;36.53;32.87;;;17.90;99.90;;;;;;5087021;28;20517;-67
2021/06/08 06:13:14;;;;;;;31.80;28.63;;;17.90;99.90;;;;;;5087732;28;20446;-66
2021/06/08 06:15:41;;;;;;;33.33;30.03;;;17.90;99.90;;;;;;5087235;28;20446;-67
2021/06/08 06:18:08;;;;;;;32.60;29.40;;;17.90;99.90;;;;;;5073642;28;20435;-64
2021/06/08 06:20:34;;;;;;;31.50;28.20;;;18.00;99.90;;;;;;5066088;28;21391;-68
2021/06/08 06:23:01;;;;;;;33.70;29.53;;;18.00;99.90;;;;;;5065995;28;20435;-67
2021/06/08 06:25:30;;;;;;;34.33;30.40;;;18.10;99.90;;;;;;5067206;28;20442;-68
2021/06/08 06:27:56;;;;;;;32.27;29.07;;;18.10;99.90;;;;;;5067623;28;20534;-68
2021/06/08 06:30:23;;;;;;;31.40;28.10;;;18.20;99.90;;;;;;5066321;28;20482;-66
2021/06/08 06:32:50;;;;;;;31.43;28.33;;;18.30;99.90;;;;;;5066095;28;21022;-66
2021/06/08 06:35:17;;;;;;;34.40;31.13;;;18.30;99.90;;;;;;5065501;28;21178;-67
2021/06/08 06:37:45;;;;;;;32.37;29.07;;;18.40;99.90;;;;;;5067201;28;20980;-67
2021/06/08 06:40:16;;;;;;;33.10;29.80;;;18.40;99.90;;;;;;5066490;28;20889;-66
2021/06/08 06:42:47;;;;;;;33.50;30.00;;;18.40;99.90;;;;;;5066607;28;20482;-65
2021/06/08 06:45:17;;;;;;;30.50;27.60;;;18.40;99.90;;;;;;5067102;28;20449;-68
2021/06/08 06:47:44;;;;;;;31.73;28.60;;;18.40;99.90;;;;;;5065555;28;21086;-64
2021/06/08 06:50:12;;;;;;;30.80;27.80;;;18.30;99.90;;;;;;5065725;28;20566;-65
2021/06/08 06:52:40;;;;;;;30.93;28.13;;;18.30;99.90;;;;;;5066208;28;20490;-67
2021/06/08 06:55:07;;;;;;;34.20;30.57;;;18.40;99.90;;;;;;5066387;28;20442;-68
2021/06/08 06:57:34;;;;;;;31.13;28.03;;;18.40;99.90;;;;;;5069879;28;20508;-66
2021/06/08 07:00:04;;;;;;;31.03;27.93;;;18.50;99.90;;;;;;5070062;28;20471;-68
2021/06/08 07:02:31;;;;;;;31.90;28.90;;;18.70;99.90;;;;;;5070300;28;20461;-67
2021/06/08 07:04:58;;;;;;;30.77;27.57;;;18.80;99.90;;;;;;5071272;28;20431;-68
2021/06/08 07:07:26;;;;;;;30.57;27.67;;;18.80;99.90;;;;;;5070565;28;20446;-67
2021/06/08 07:09:52;;;;;;;31.17;28.07;;;18.80;99.90;;;;;;5070449;28;20469;-66
2021/06/08 07:12:20;;;;;;;31.20;28.30;;;18.90;99.90;;;;;;5070146;28;20897;-69
2021/06/08 07:14:47;;;;;;;29.83;26.93;;;19.00;99.90;;;;;;5070708;28;20876;-67
2021/06/08 07:17:14;;;;;;;30.27;27.27;;;19.00;99.90;;;;;;5070248;28;20994;-70
2021/06/08 07:19:43;;;;;;;32.20;29.07;;;19.20;99.90;;;;;;5081421;28;20513;-69
2021/06/08 07:22:10;;;;;;;30.90;27.83;;;19.20;99.90;;;;;;5091130;28;20439;-68
2021/06/08 07:24:41;;;;;;;31.93;28.83;;;19.30;99.90;;;;;;5090357;28;20533;-65
2021/06/08 07:27:11;;;;;;;30.70;27.80;;;19.40;99.90;;;;;;5090271;28;20509;-67
2021/06/08 07:29:38;;;;;;;29.60;26.53;;;19.50;99.90;;;;;;5090174;28;20473;-69
2021/06/08 07:32:06;;;;;;;28.47;25.67;;;19.60;99.90;;;;;;5089939;28;20469;-67
2021/06/08 07:34:40;;;;;;;31.00;27.83;;;19.70;99.90;;;;;;5090299;28;20516;-65
2021/06/08 07:37:09;;;;;;;30.80;27.70;;;19.80;99.90;;;;;;5089850;28;20521;-68
2021/06/08 07:39:44;;;;;;;30.20;27.30;;;19.80;99.90;;;;;;5089541;28;20541;-67
2021/06/08 07:42:17;;;;;;;31.90;28.50;;;19.70;99.90;;;;;;5089552;28;20544;-66
2021/06/08 07:44:49;;;;;;;30.37;27.27;;;19.70;99.90;;;;;;5090370;28;20446;-65
2021/06/08 07:47:17;;;;;;;31.10;28.13;;;19.70;99.90;;;;;;5090136;28;20442;-64
2021/06/08 07:49:48;;;;;;;32.77;29.40;;;19.60;99.90;;;;;;5089755;28;20462;-66
2021/06/08 07:52:18;;;;;;;33.50;30.20;;;19.50;99.90;;;;;;5090374;28;20958;-68
2021/06/08 07:54:45;;;;;;;31.73;28.40;;;19.50;99.90;;;;;;5089983;28;20470;-65
2021/06/08 07:57:12;;;;;;;30.63;27.57;;;19.70;99.90;;;;;;5090043;28;21056;-66
2021/06/08 07:59:41;;;;;;;32.97;29.67;;;19.80;99.90;;;;;;5089741;28;20549;-64
2021/06/08 08:02:08;;;;;;;33.20;29.90;;;19.90;99.90;;;;;;5089102;28;20428;-67
2021/06/08 08:04:38;;;;;;;31.47;28.27;;;19.90;99.90;;;;;;5089895;28;20236;-66
2021/06/08 08:07:05;;;;;;;29.60;26.73;;;19.90;99.90;;;;;;5088658;28;20501;-66
2021/06/08 08:09:33;;;;;;;32.53;29.43;;;20.00;99.90;;;;;;5089569;28;20498;-65
2021/06/08 08:12:01;;;;;;;32.60;29.27;;;20.00;99.90;;;;;;5089403;28;20961;-68
2021/06/08 08:14:29;;;;;;;31.47;28.40;;;20.00;99.90;;;;;;5089883;28;20959;-68
2021/06/08 08:16:56;;;;;;;30.93;27.93;;;20.10;99.90;;;;;;5088035;28;20446;-66
2021/06/08 08:19:24;;;;;;;34.03;30.83;;;20.30;99.90;;;;;;5088556;28;20891;-66
2021/06/08 08:21:51;;;;;;;31.27;28.30;;;20.40;99.90;;;;;;5089545;28;20442;-66
2021/06/08 08:24:19;;;;;;;33.33;30.03;;;20.40;99.90;;;;;;5089382;28;20553;-66
2021/06/08 08:26:45;;;;;;;32.73;29.63;;;20.40;99.90;;;;;;5089802;28;20533;-67
2021/06/08 08:29:12;;;;;;;34.30;30.90;;;20.40;99.90;;;;;;5088828;28;21026;-68
2021/06/08 08:31:38;;;;;;;33.30;30.00;;;20.40;99.90;;;;;;5089154;28;20507;-68
2021/06/08 08:34:05;;;;;;;32.40;29.40;;;20.40;99.90;;;;;;5072961;28;21059;-67
2021/06/08 08:36:36;;;;;;;32.70;29.60;;;20.50;99.90;;;;;;5067411;28;20641;-67
2021/06/08 08:39:04;;;;;;;32.93;29.80;;;20.70;99.90;;;;;;5066153;28;20471;-68
2021/06/08 08:41:32;;;;;;;34.70;31.40;;;21.10;99.90;;;;;;5065811;28;20536;-67
2021/06/08 08:44:00;;;;;;;34.70;31.30;;;21.30;99.90;;;;;;5065749;28;20570;-67
2021/06/08 08:46:27;;;;;;;33.93;30.83;;;21.40;99.90;;;;;;5066151;28;20850;-67
2021/06/08 08:48:55;;;;;;;30.73;27.73;;;21.60;99.90;;;;;;5068069;28;20506;-68
2021/06/08 08:51:23;;;;;;;33.20;29.70;;;21.60;99.90;;;;;;5065722;28;20505;-68
2021/06/08 08:53:53;;;;;;;30.60;27.70;;;21.80;99.90;;;;;;5066574;28;20973;-67
2021/06/08 08:56:22;;;;;;;32.63;29.53;;;22.00;99.90;;;;;;5067777;28;20459;-68
2021/06/08 08:58:50;;;;;;;31.93;28.93;;;22.10;99.90;;;;;;5067344;28;20934;-69
2021/06/08 09:01:17;;;;;;;29.23;26.63;;;22.70;99.90;;;;;;5067699;28;20510;-68
2021/06/08 09:03:44;;;;;;;31.03;28.13;;;23.10;99.90;;;;;;5067703;28;20525;-68
2021/06/08 09:06:12;;;;;;;30.73;27.80;;;23.20;99.90;;;;;;5068039;28;20529;-70
2021/06/08 09:08:39;;;;;;;32.83;29.73;;;23.30;99.90;;;;;;5068235;28;20466;-68
2021/06/08 09:11:07;;;;;;;30.00;27.27;;;23.20;99.90;;;;;;5067944;28;20470;-68
2021/06/08 09:13:34;;;;;;;32.87;29.97;;;23.00;99.90;;;;;;5068551;28;20512;-67
2021/06/08 09:16:01;;;;;;;32.43;29.60;;;22.90;99.90;;;;;;5067343;28;21036;-66
2021/06/08 09:18:28;;;;;;;33.67;30.57;;;22.80;99.90;;;;;;5066489;28;20546;-67
2021/06/08 09:21:10;;;;;;;32.50;29.70;;;22.70;99.90;;;;;;5063683;28;20953;-68
2021/06/08 09:23:36;;;;;;;31.07;28.17;;;22.80;99.90;;;;;;5070429;28;21325;-67
2021/06/08 09:26:02;;;;;;;33.07;29.90;;;22.90;99.90;;;;;;5069525;28;20435;-66
2021/06/08 09:28:30;;;;;;;32.83;29.93;;;23.20;99.90;;;;;;5065105;28;20473;-67
2021/06/08 09:30:59;;;;;;;31.03;28.33;;;23.40;99.90;;;;;;5059900;28;20490;-66
2021/06/08 09:33:29;;;;;;;32.23;29.43;;;23.50;99.90;;;;;;5057183;28;20537;-67
2021/06/08 09:35:57;;;;;;;31.77;28.97;;;23.90;99.90;;;;;;5058494;28;20446;-66
2021/06/08 09:38:39;;;;;;;30.00;27.47;;;24.20;99.90;;;;;;5068071;28;20566;-67
2021/06/08 09:41:19;;;;;;;31.73;28.77;;;24.30;99.90;;;;;;5065800;28;20942;-65
2021/06/08 09:43:58;;;;;;;30.67;27.87;;;24.20;99.90;;;;;;5066011;28;20530;-67
2021/06/08 09:46:31;;;;;;;32.53;29.57;;;24.00;99.90;;;;;;5066109;28;20452;-66
2021/06/08 09:49:01;;;;;;;29.70;27.00;;;23.60;99.90;;;;;;5066527;28;21018;-66
2021/06/08 09:51:45;;;;;;;33.50;30.50;;;23.50;99.90;;;;;;5073517;28;102800;-66
2021/06/08 09:54:27;;;;;;;31.83;28.90;;;23.90;99.90;;;;;;5066929;28;20470;-68
2021/06/08 09:57:11;;;;;;;31.67;28.70;;;24.10;99.90;;;;;;5067550;28;20447;-66
2021/06/08 09:59:41;;;;;;;32.37;29.40;;;24.00;99.90;;;;;;5066351;28;20474;-66
2021/06/08 10:02:28;;;;;;;29.83;27.03;;;24.00;99.90;;;;;;5067366;28;20530;-67
2021/06/08 10:05:16;;;;;;;31.30;28.30;;;24.00;99.90;;;;;;5067127;28;20474;-66
2021/06/08 10:07:43;;;;;;;31.37;28.50;;;24.10;99.90;;;;;;5067684;28;20525;-66
2021/06/08 10:10:10;;;;;;;33.03;29.93;;;24.20;99.90;;;;;;5067080;28;20537;-67
2021/06/08 10:12:53;;;;;;;32.87;29.80;;;24.30;99.90;;;;;;5066316;28;21092;-67
2021/06/08 10:15:20;;;;;;;32.43;29.57;;;24.20;99.90;;;;;;5066622;28;20483;-66
2021/06/08 10:17:46;;;;;;;30.43;27.43;;;23.80;99.90;;;;;;5066660;28;20491;-66
2021/06/08 10:20:22;;;;;;;31.17;28.27;;;23.70;99.90;;;;;;5068256;28;20875;-66
2021/06/08 10:22:49;;;;;;;34.43;31.43;;;23.70;99.90;;;;;;5072861;28;20938;-67
2021/06/08 10:25:16;;;;;;;33.33;30.13;;;23.70;99.90;;;;;;5066853;28;20451;-66
2021/06/08 10:27:42;;;;;;;30.40;27.70;;;23.80;99.90;;;;;;5066497;28;20538;-66
2021/06/08 10:30:10;;;;;;;32.10;29.10;;;24.10;99.90;;;;;;5067817;28;20497;-67
2021/06/08 10:32:38;;;;;;;32.97;30.17;;;24.20;99.90;;;;;;5076121;28;20565;-67
2021/06/08 10:35:05;;;;;;;31.63;28.93;;;24.20;99.90;;;;;;5071119;28;20443;-70
2021/06/08 10:37:33;;;;;;;33.73;30.73;;;24.20;99.90;;;;;;5070992;28;20455;-70
2021/06/08 10:40:00;;;;;;;32.63;29.67;;;24.20;99.90;;;;;;5070961;28;20954;-70
2021/06/08 10:42:27;;;;;;;30.07;27.37;;;24.00;99.90;;;;;;5070974;28;20469;-68
2021/06/08 10:45:04;;;;;;;32.23;29.40;;;24.20;99.90;;;;;;5070803;28;20439;-70
2021/06/08 10:47:35;;;;;;;31.10;28.20;;;24.00;99.90;;;;;;5071512;28;20446;-69
2021/06/08 10:50:03;;;;;;;33.00;30.03;;;23.70;99.90;;;;;;5075582;28;20466;-70
2021/06/08 10:52:46;;;;;;;31.90;29.10;;;23.40;99.90;;;;;;5074156;28;21071;-70
2021/06/08 10:55:13;;;;;;;32.63;29.67;;;23.20;99.90;;;;;;5070834;28;20455;-69
2021/06/08 10:57:44;;;;;;;32.13;29.43;;;23.20;99.90;;;;;;5070152;28;20447;-70
2021/06/08 11:00:34;;;;;;;35.10;32.00;;;23.30;99.90;;;;;;5070078;28;20467;-68
2021/06/08 11:03:01;;;;;;;30.83;28.20;;;23.30;99.90;;;;;;5070387;28;21037;-68
2021/06/08 11:05:49;;;;;;;30.70;27.80;;;23.50;99.90;;;;;;5070158;28;20537;-71
2021/06/08 11:08:18;;;;;;;28.30;25.80;;;23.70;99.90;;;;;;5069800;28;20454;-70
2021/06/08 11:10:54;;;;;;;29.70;27.17;;;23.80;99.90;;;;;;5070342;28;20454;-70
2021/06/08 11:13:51;;;;;;;31.40;28.60;;;23.70;99.90;;;;;;5070636;28;20462;-69
2021/06/08 11:16:32;;;;;;;28.90;26.50;;;23.70;99.90;;;;;;5064846;28;20450;-68
2021/06/08 11:18:59;;;;;;;30.00;27.40;;;23.60;99.90;;;;;;5070859;28;20573;-69
2021/06/08 11:21:28;;;;;;;29.30;26.90;;;23.60;99.90;;;;;;5076361;28;20537;-68
2021/06/08 11:23:56;;;;;;;31.80;29.20;;;23.80;99.90;;;;;;5067037;28;20451;-68
2021/06/08 11:26:48;;;;;;;31.77;28.87;;;24.20;99.90;;;;;;5068037;28;20447;-70
2021/06/08 11:29:43;;;;;;;30.10;27.57;;;24.80;99.90;;;;;;5071583;28;20538;-69
2021/06/08 11:32:10;;;;;;;28.43;26.03;;;25.60;99.90;;;;;;5067635;28;20483;-68
2021/06/08 11:35:07;;;;;;;25.80;23.50;;;26.20;99.90;;;;;;5069613;28;20450;-69
2021/06/08 11:37:47;;;;;;;28.90;26.60;;;26.80;99.90;;;;;;5069035;28;20445;-68
2021/06/08 11:40:56;;;;;;;29.93;27.60;;;26.80;99.90;;;;;;5069868;28;20462;-69
2021/06/08 11:43:53;;;;;;;28.57;25.97;;;26.60;99.90;;;;;;5071083;28;20459;-67
2021/06/08 11:47:01;;;;;;;28.40;25.90;;;26.90;99.90;;;;;;5071051;28;20455;-68
2021/06/08 11:49:29;;;;;;;28.97;26.50;;;26.70;99.90;;;;;;5068841;28;20455;-67
2021/06/08 11:52:12;;;;;;;26.80;24.63;;;26.20;99.90;;;;;;5075404;28;20488;-68
2021/06/08 11:54:48;;;;;;;26.67;24.47;;;26.00;99.90;;;;;;5073593;28;20451;-67
2021/06/08 11:57:33;;;;;;;29.33;26.83;;;26.00;99.90;;;;;;5068828;28;21037;-67
2021/06/08 12:00:01;;;;;;;27.73;25.07;;;26.10;99.90;;;;;;5067877;28;20462;-68
2021/06/08 12:02:30;;;;;;;28.70;26.40;;;26.10;99.90;;;;;;5070990;28;20451;-69
2021/06/08 12:05:18;;;;;;;27.37;25.07;;;26.30;99.90;;;;;;5071576;28;20483;-67
2021/06/08 12:07:46;;;;;;;25.00;23.10;;;26.70;99.90;;;;;;5070875;28;20454;-69
2021/06/08 12:10:15;;;;;;;30.17;27.53;;;26.60;99.90;;;;;;5064250;28;20835;-67
2021/06/08 12:12:49;;;;;;;25.93;23.73;;;26.40;99.90;;;;;;5064590;28;20562;-68
2021/06/08 12:15:25;;;;;;;24.50;22.40;;;26.60;99.90;;;;;;5064649;28;20458;-69
2021/06/08 12:18:05;;;;;;;25.73;23.63;;;27.20;99.90;;;;;;5071200;28;20537;-69
2021/06/08 12:20:32;;;;;;;25.17;22.80;;;27.80;99.90;;;;;;5074773;28;21121;-68
2021/06/08 12:22:59;;;;;;;24.80;22.80;;;28.30;99.90;;;;;;5059855;28;20468;-65
2021/06/08 12:25:26;;;;;;;24.37;22.20;;;28.60;99.90;;;;;;5068476;28;20526;-66
2021/06/08 12:27:52;;;;;;;24.10;22.30;;;28.20;99.90;;;;;;5069418;28;20861;-66
2021/06/08 12:30:23;;;;;;;24.57;22.67;;;28.50;99.90;;;;;;5069730;28;20542;-70
2021/06/08 12:32:55;;;;;;;24.50;22.30;;;28.40;99.90;;;;;;5069632;28;20487;-67
2021/06/08 12:35:28;;;;;;;22.13;20.30;;;28.30;99.90;;;;;;5062323;28;20457;-68
2021/06/08 12:38:11;;;;;;;22.17;20.47;;;28.90;99.90;;;;;;5058919;28;20535;-66
2021/06/08 12:40:38;;;;;;;24.10;22.17;;;29.30;99.90;;;;;;5059314;28;20458;-67